createdAt,value
2019-05-14T00:00:12.731Z,99.90
2019-05-14T00:02:41.493Z,99.90
2019-05-14T00:05:12.024Z,99.90
2019-05-14T00:07:41.535Z,99.90
2019-05-14T00:10:11.839Z,99.90
2019-05-14T00:12:41.843Z,99.90
2019-05-14T00:15:11.136Z,99.90
2019-05-14T00:17:41.582Z,99.90
2019-05-14T00:20:13.164Z,99.90
2019-05-14T00:22:41.994Z,99.90
2019-05-14T00:25:11.664Z,99.90
2019-05-14T00:27:41.437Z,99.90
2019-05-14T00:30:11.456Z,99.90
2019-05-14T00:32:41.459Z,99.90
2019-05-14T00:35:12.981Z,99.90
2019-05-14T00:37:41.629Z,99.90
2019-05-14T00:40:11.743Z,99.90
2019-05-14T00:42:41.473Z,99.90
2019-05-14T00:45:13.838Z,99.90
2019-05-14T00:47:42.397Z,99.90
2019-05-14T00:50:11.424Z,99.90
2019-05-14T00:52:42.489Z,99.90
2019-05-14T00:55:11.763Z,99.90
2019-05-14T00:57:42.787Z,99.90
2019-05-14T01:00:11.795Z,99.90
2019-05-14T01:02:41.625Z,99.90
2019-05-14T01:05:12.488Z,99.90
2019-05-14T01:07:43.730Z,99.90
2019-05-14T01:10:12.225Z,99.90
2019-05-14T01:12:41.567Z,99.90
2019-05-14T01:15:13.898Z,99.90
2019-05-14T01:17:42.145Z,99.90
2019-05-14T01:20:12.348Z,99.90
2019-05-14T01:22:42.236Z,99.90
2019-05-14T01:25:12.080Z,99.90
2019-05-14T01:27:41.342Z,99.90
2019-05-14T01:30:12.505Z,99.90
2019-05-14T01:32:42.097Z,99.90
2019-05-14T01:35:12.012Z,99.90
2019-05-14T01:37:41.564Z,99.90
2019-05-14T01:40:11.407Z,99.90
2019-05-14T01:42:41.583Z,99.90
2019-05-14T01:45:24.463Z,99.90
2019-05-14T01:47:42.597Z,99.90
2019-05-14T01:50:11.468Z,99.90
2019-05-14T01:52:41.500Z,99.90
2019-05-14T01:55:11.432Z,99.90
2019-05-14T01:57:42.280Z,99.90
2019-05-14T02:00:12.531Z,99.90
2019-05-14T02:02:41.807Z,99.90
2019-05-14T02:05:12.420Z,99.90
2019-05-14T02:07:42.086Z,99.90
2019-05-14T02:10:11.599Z,99.90
2019-05-14T02:12:42.391Z,99.90
2019-05-14T02:15:12.045Z,99.90
2019-05-14T02:17:41.571Z,99.90
2019-05-14T02:20:12.378Z,99.90
2019-05-14T02:22:41.691Z,99.90
2019-05-14T02:25:11.608Z,99.90
2019-05-14T02:27:41.362Z,99.90
2019-05-14T02:30:10.335Z,99.90
2019-05-14T02:32:40.380Z,99.90
2019-05-14T02:35:10.213Z,99.90
2019-05-14T02:37:40.205Z,99.90
2019-05-14T02:40:10.273Z,99.90
2019-05-14T02:42:40.154Z,99.90
2019-05-14T02:45:09.356Z,99.90
2019-05-14T02:47:39.636Z,99.90
2019-05-14T02:50:10.069Z,99.90
2019-05-14T02:52:40.346Z,99.90
2019-05-14T02:55:10.362Z,99.90
2019-05-14T02:57:39.589Z,99.90
2019-05-14T03:00:10.126Z,99.90
2019-05-14T03:02:40.460Z,99.90
2019-05-14T03:05:10.011Z,99.90
2019-05-14T03:07:39.589Z,99.90
2019-05-14T03:10:09.975Z,99.90
2019-05-14T03:12:39.803Z,99.90
2019-05-14T03:15:09.657Z,99.90
2019-05-14T03:17:40.424Z,99.90
2019-05-14T03:20:09.305Z,99.90
2019-05-14T03:22:46.009Z,99.90
2019-05-14T03:25:10.188Z,99.90
2019-05-14T03:27:40.498Z,99.90
2019-05-14T03:30:12.706Z,99.90
2019-05-14T03:32:42.259Z,99.90
2019-05-14T03:35:13.548Z,99.90
2019-05-14T03:37:40.439Z,99.90
2019-05-14T03:40:09.578Z,99.90
2019-05-14T03:42:39.990Z,99.90
2019-05-14T03:45:08.963Z,99.90
2019-05-14T03:47:39.346Z,99.90
2019-05-14T03:50:10.239Z,99.90
2019-05-14T03:52:39.906Z,99.90
2019-05-14T03:55:09.366Z,99.90
2019-05-14T03:57:39.874Z,99.90
2019-05-14T04:00:10.342Z,99.90
2019-05-14T04:02:39.270Z,99.90
2019-05-14T04:05:09.560Z,99.90
2019-05-14T04:07:39.465Z,99.90
2019-05-14T04:10:10.246Z,99.90
2019-05-14T04:12:40.496Z,99.90
2019-05-14T04:15:09.857Z,99.90
2019-05-14T04:17:42.490Z,99.90
2019-05-14T04:20:11.821Z,99.90
2019-05-14T04:22:40.499Z,99.90
2019-05-14T04:25:10.818Z,99.90
2019-05-14T04:27:40.314Z,99.90
2019-05-14T04:30:09.687Z,99.90
2019-05-14T04:32:39.780Z,99.90
2019-05-14T04:35:09.614Z,99.90
2019-05-14T04:37:39.925Z,99.90
2019-05-14T04:40:09.955Z,99.90
2019-05-14T04:42:40.210Z,99.90
2019-05-14T04:45:11.361Z,99.90
2019-05-14T04:47:42.125Z,99.90
2019-05-14T04:50:49.929Z,99.90
2019-05-14T04:53:19.515Z,99.90
2019-05-14T04:55:49.437Z,99.90
2019-05-14T04:58:21.553Z,99.90
2019-05-14T05:03:19.938Z,99.90
2019-05-14T05:05:50.118Z,99.90
2019-05-14T05:08:20.064Z,99.90
2019-05-14T05:10:49.864Z,99.90
2019-05-14T05:13:20.915Z,99.90
2019-05-14T05:15:50.299Z,99.90
2019-05-14T05:18:19.704Z,99.90
2019-05-14T05:20:50.520Z,99.90
2019-05-14T05:23:20.275Z,99.90
2019-05-14T05:25:49.643Z,99.90
2019-05-14T05:28:19.224Z,99.90
2019-05-14T05:30:49.169Z,99.90
2019-05-14T05:33:18.845Z,99.90
2019-05-14T05:35:48.637Z,99.90
2019-05-14T05:38:18.423Z,99.90
2019-05-14T05:40:48.570Z,99.90
2019-05-14T05:43:19.188Z,99.90
2019-05-14T05:45:48.775Z,99.90
2019-05-14T05:48:18.830Z,99.90
2019-05-14T05:50:48.652Z,99.90
2019-05-14T05:53:20.220Z,99.90
2019-05-14T05:55:50.615Z,99.90
2019-05-14T05:58:20.007Z,99.90
2019-05-14T06:00:49.861Z,99.90
2019-05-14T06:03:20.951Z,99.90
2019-05-14T06:05:50.658Z,99.90
2019-05-14T06:08:20.022Z,99.90
2019-05-14T06:10:49.387Z,99.90
2019-05-14T06:13:18.796Z,99.90
2019-05-14T06:15:51.468Z,99.90
2019-05-14T06:18:22.014Z,99.90
2019-05-14T06:20:50.340Z,99.90
2019-05-14T06:23:19.704Z,99.90
2019-05-14T06:25:49.431Z,99.90
2019-05-14T06:28:20.859Z,99.90
2019-05-14T06:30:50.136Z,99.90
2019-05-14T06:33:19.767Z,99.90
2019-05-14T06:35:49.231Z,99.90
2019-05-14T06:38:19.268Z,99.90
2019-05-14T06:40:49.104Z,99.90
2019-05-14T06:43:19.128Z,99.90
2019-05-14T06:45:50.081Z,99.90
2019-05-14T06:48:30.640Z,99.90
2019-05-14T06:50:50.630Z,99.90
2019-05-14T06:53:20.026Z,99.90
2019-05-14T06:55:49.374Z,99.90
2019-05-14T06:58:20.306Z,99.90
2019-05-14T07:00:49.949Z,99.90
2019-05-14T07:03:19.387Z,99.90
2019-05-14T07:05:49.261Z,99.90
2019-05-14T07:08:19.029Z,99.90
2019-05-14T07:10:48.703Z,99.90
2019-05-14T07:13:18.980Z,99.90
2019-05-14T07:15:49.008Z,99.90
2019-05-14T07:18:19.046Z,99.90
2019-05-14T07:20:48.722Z,99.90
2019-05-14T07:23:19.458Z,99.90
2019-05-14T07:25:51.568Z,99.90
2019-05-14T07:28:20.971Z,99.90
2019-05-14T07:30:50.312Z,99.90
2019-05-14T07:33:21.027Z,99.90
2019-05-14T07:35:50.473Z,99.90
2019-05-14T07:38:19.833Z,99.90
2019-05-14T07:40:49.568Z,99.90
2019-05-14T07:43:19.028Z,99.90
2019-05-14T07:45:49.146Z,99.90
2019-05-14T07:48:19.089Z,99.90
2019-05-14T07:50:51.923Z,99.90
2019-05-14T07:53:19.595Z,99.90
2019-05-14T07:55:49.363Z,99.90
2019-05-14T07:58:19.786Z,99.90
2019-05-14T08:00:49.445Z,99.90
2019-05-14T08:03:19.107Z,99.90
2019-05-14T08:05:49.763Z,99.90
2019-05-14T08:08:19.185Z,99.90
2019-05-14T08:10:48.853Z,99.90
2019-05-14T08:13:19.050Z,99.90
2019-05-14T08:15:49.107Z,99.90
2019-05-14T08:18:18.934Z,99.90
2019-05-14T08:20:49.604Z,99.90
2019-05-14T08:23:19.090Z,99.90
2019-05-14T08:25:48.522Z,99.30
2019-05-14T08:28:21.207Z,98.20
2019-05-14T08:30:50.007Z,98.50
2019-05-14T08:33:19.548Z,97.30
2019-05-14T08:35:49.009Z,98.70
2019-05-14T08:38:18.611Z,99.90
2019-05-14T08:40:48.884Z,99.90
2019-05-14T08:43:21.309Z,97.60
2019-05-14T08:45:49.884Z,96.00
2019-05-14T08:48:19.369Z,98.70
2019-05-14T08:50:48.715Z,99.40
2019-05-14T08:53:18.718Z,99.70
2019-05-14T08:55:48.922Z,97.80
2019-05-14T08:58:20.070Z,99.90
2019-05-14T09:00:49.581Z,97.70
2019-05-14T09:03:19.363Z,96.60
2019-05-14T09:06:00.536Z,98.20
2019-05-14T09:08:28.913Z,97.70
2019-05-14T09:10:59.079Z,95.80
2019-05-14T09:13:29.121Z,96.20
2019-05-14T09:15:58.643Z,95.20
2019-05-14T09:18:29.339Z,94.60
2019-05-14T09:20:58.778Z,92.50
2019-05-14T09:23:28.800Z,93.80
2019-05-14T09:25:58.987Z,93.90
2019-05-14T09:28:28.779Z,93.70
2019-05-14T09:30:59.658Z,92.60
2019-05-14T09:33:29.772Z,93.00
2019-05-14T09:36:13.546Z,93.30
2019-05-14T09:38:41.667Z,93.10
2019-05-14T09:41:14.772Z,92.90
2019-05-14T09:43:39.391Z,91.90
2019-05-14T09:46:13.974Z,92.10
2019-05-14T09:48:48.704Z,92.70
2019-05-14T09:51:18.416Z,92.30
2019-05-14T09:53:48.967Z,91.90
2019-05-14T09:56:18.974Z,91.90
2019-05-14T09:58:49.467Z,92.20
2019-05-14T10:01:20.362Z,92.50
2019-05-14T10:03:52.508Z,91.40
2019-05-14T10:06:22.008Z,91.30
2019-05-14T10:08:51.425Z,91.10
2019-05-14T10:11:20.815Z,90.80
2019-05-14T10:13:52.188Z,90.60
2019-05-14T10:16:21.639Z,89.20
2019-05-14T10:18:53.033Z,90.40
2019-05-14T10:21:29.092Z,90.50
2019-05-14T10:23:58.417Z,87.10
2019-05-14T10:26:28.998Z,88.70
2019-05-14T10:28:59.019Z,86.10
2019-05-14T10:31:29.134Z,84.70
2019-05-14T10:34:02.240Z,83.80
2019-05-14T10:36:31.608Z,83.30
2019-05-14T10:39:00.958Z,85.90
2019-05-14T10:41:34.613Z,83.00
2019-05-14T10:44:04.102Z,82.50
2019-05-14T10:46:33.631Z,84.70
2019-05-14T10:49:16.644Z,83.80
2019-05-14T10:51:38.739Z,83.00
2019-05-14T10:54:21.056Z,81.00
2019-05-14T10:56:38.904Z,80.40
2019-05-14T10:59:09.525Z,82.60
2019-05-14T11:01:40.682Z,81.40
2019-05-14T11:04:10.124Z,82.10
2019-05-14T11:06:39.482Z,78.20
2019-05-14T11:09:10.386Z,79.60
2019-05-14T11:11:39.122Z,79.30
2019-05-14T11:14:10.033Z,81.30
2019-05-14T11:16:41.871Z,82.20
2019-05-14T11:19:10.473Z,81.00
2019-05-14T11:21:39.915Z,80.10
2019-05-14T11:24:09.643Z,79.20
2019-05-14T11:26:39.381Z,78.30
2019-05-14T11:29:08.989Z,79.30
2019-05-14T11:31:39.173Z,78.40
2019-05-14T11:34:08.760Z,79.20
2019-05-14T11:36:41.095Z,76.30
2019-05-14T11:39:10.613Z,74.70
2019-05-14T11:41:40.022Z,75.00
2019-05-14T11:44:10.949Z,74.80
2019-05-14T11:46:51.051Z,76.90
2019-05-14T11:49:11.384Z,77.40
2019-05-14T11:51:59.455Z,77.90
2019-05-14T11:54:12.090Z,78.90
2019-05-14T11:56:42.011Z,78.00
2019-05-14T11:59:11.659Z,76.20
2019-05-14T12:01:41.024Z,76.30
2019-05-14T12:04:10.439Z,74.30
2019-05-14T12:06:39.778Z,75.90
2019-05-14T12:09:12.161Z,75.70
2019-05-14T12:11:41.764Z,73.80
2019-05-14T12:14:11.196Z,73.40
2019-05-14T12:16:40.609Z,74.00
2019-05-14T12:19:12.038Z,75.80
2019-05-14T12:21:57.412Z,75.60
2019-05-14T12:24:13.776Z,76.10
2019-05-14T12:26:42.379Z,75.70
2019-05-14T12:29:13.448Z,76.60
2019-05-14T12:31:42.799Z,75.90
2019-05-14T12:34:14.883Z,74.80
2019-05-14T12:36:44.325Z,75.00
2019-05-14T12:39:13.665Z,76.00
2019-05-14T12:41:43.023Z,75.00
2019-05-14T12:44:12.386Z,76.30
2019-05-14T12:46:41.816Z,77.30
2019-05-14T12:49:12.824Z,76.90
2019-05-14T12:51:45.505Z,77.30
2019-05-14T12:54:14.887Z,75.70
2019-05-14T12:56:44.275Z,76.10
2019-05-14T12:59:13.615Z,76.60
2019-05-14T13:01:42.997Z,75.00
2019-05-14T13:04:14.002Z,75.50
2019-05-14T13:06:43.452Z,73.90
2019-05-14T13:09:12.880Z,73.90
2019-05-14T13:11:42.367Z,75.50
2019-05-14T13:14:11.755Z,72.90
2019-05-14T13:16:41.202Z,74.40
2019-05-14T13:19:11.529Z,76.00
2019-05-14T13:21:40.910Z,74.90
2019-05-14T13:24:10.271Z,74.20
2019-05-14T13:26:39.640Z,74.40
2019-05-14T13:29:10.838Z,74.60
2019-05-14T13:31:40.893Z,75.00
2019-05-14T13:34:10.239Z,75.60
2019-05-14T13:36:42.085Z,73.20
2019-05-14T13:39:10.721Z,72.20
2019-05-14T13:41:41.878Z,73.40
2019-05-14T13:44:24.096Z,74.70
2019-05-14T13:46:42.366Z,74.80
2019-05-14T13:49:11.782Z,76.40
2019-05-14T13:51:41.210Z,73.10
2019-05-14T13:54:12.272Z,74.50
2019-05-14T13:56:41.630Z,75.90
2019-05-14T13:59:10.994Z,75.30
2019-05-14T14:01:40.397Z,74.50
2019-05-14T14:04:14.858Z,75.40
2019-05-14T14:06:41.863Z,73.60
2019-05-14T14:09:12.331Z,75.00
2019-05-14T14:11:44.627Z,71.80
2019-05-14T14:14:13.998Z,72.80
2019-05-14T14:16:44.905Z,73.50
2019-05-14T14:19:14.344Z,73.70
2019-05-14T14:21:45.239Z,72.50
2019-05-14T14:24:14.697Z,73.20
2019-05-14T14:26:44.120Z,72.50
2019-05-14T14:29:18.801Z,70.80
2019-05-14T14:31:48.562Z,70.90
2019-05-14T14:34:18.337Z,73.30
2019-05-14T14:36:49.998Z,71.60
2019-05-14T14:39:19.295Z,72.20
2019-05-14T14:41:49.070Z,71.10
2019-05-14T14:44:19.110Z,71.10
2019-05-14T14:46:48.814Z,71.40
2019-05-14T14:49:19.762Z,72.30
2019-05-14T14:51:50.133Z,71.30
2019-05-14T14:54:19.570Z,69.90
2019-05-14T14:56:48.911Z,70.40
2019-05-14T14:59:19.057Z,72.20
2019-05-14T15:01:50.242Z,69.80
2019-05-14T15:04:20.736Z,72.30
2019-05-14T15:06:50.893Z,71.60
2019-05-14T15:09:20.653Z,71.80
2019-05-14T15:11:50.108Z,70.30
2019-05-14T15:14:20.364Z,71.30
2019-05-14T15:16:50.986Z,71.80
2019-05-14T15:19:20.335Z,71.50
2019-05-14T15:21:52.419Z,71.60
2019-05-14T15:24:23.489Z,72.10
2019-05-14T15:26:52.162Z,72.30
2019-05-14T15:29:21.581Z,72.90
2019-05-14T15:31:50.932Z,72.10
2019-05-14T15:34:20.294Z,72.80
2019-05-14T15:36:52.632Z,72.10
2019-05-14T15:39:23.118Z,72.20
2019-05-14T15:41:52.675Z,72.40
2019-05-14T15:44:22.217Z,71.70
2019-05-14T15:46:53.271Z,73.20
2019-05-14T15:49:22.717Z,72.60
2019-05-14T15:51:53.616Z,72.50
2019-05-14T15:54:39.220Z,72.90
2019-05-14T15:56:54.218Z,71.70
2019-05-14T15:59:23.569Z,71.60
2019-05-14T16:01:52.935Z,71.20
2019-05-14T16:04:31.137Z,71.30
2019-05-14T16:07:00.580Z,72.40
2019-05-14T16:09:30.109Z,73.30
2019-05-14T16:12:00.437Z,73.20
2019-05-14T16:14:30.154Z,72.80
2019-05-14T16:16:59.637Z,72.30
2019-05-14T16:19:29.064Z,72.20
2019-05-14T16:21:58.731Z,72.60
2019-05-14T16:24:29.848Z,72.70
2019-05-14T16:27:00.598Z,72.40
2019-05-14T16:29:41.775Z,72.00
2019-05-14T16:32:03.332Z,73.70
2019-05-14T16:34:32.687Z,73.40
2019-05-14T16:37:02.082Z,70.90
2019-05-14T16:39:31.559Z,71.90
2019-05-14T16:42:01.017Z,71.70
2019-05-14T16:44:30.381Z,72.10
2019-05-14T16:46:59.835Z,70.10
2019-05-14T16:49:30.051Z,68.50
2019-05-14T16:51:59.790Z,68.10
2019-05-14T16:54:29.676Z,68.10
2019-05-14T16:56:59.387Z,68.90
2019-05-14T16:59:29.553Z,67.60
2019-05-14T17:01:59.385Z,67.70
2019-05-14T17:04:29.313Z,67.60
2019-05-14T17:06:59.134Z,67.50
2019-05-14T17:09:29.617Z,68.90
2019-05-14T17:11:59.149Z,68.70
2019-05-14T17:14:29.117Z,67.90
2019-05-14T17:16:59.549Z,68.00
2019-05-14T17:19:29.866Z,70.90
2019-05-14T17:22:01.079Z,73.00
2019-05-14T17:24:33.230Z,72.90
2019-05-14T17:27:02.584Z,75.70
2019-05-14T17:29:31.927Z,74.70
2019-05-14T17:32:01.295Z,75.50
2019-05-14T17:34:30.720Z,75.80
2019-05-14T17:37:00.102Z,76.50
2019-05-14T17:39:29.516Z,76.80
2019-05-14T17:41:59.053Z,76.60
2019-05-14T17:44:28.620Z,77.50
2019-05-14T17:46:59.140Z,76.50
2019-05-14T17:49:28.862Z,76.50
2019-05-14T17:51:58.327Z,77.30
2019-05-14T17:54:28.425Z,76.90
2019-05-14T17:56:59.189Z,77.30
2019-05-14T17:59:29.763Z,76.70
2019-05-14T18:02:00.498Z,76.70
2019-05-14T18:04:29.961Z,77.00
2019-05-14T18:07:00.497Z,77.20
2019-05-14T18:09:30.024Z,77.40
2019-05-14T18:11:59.407Z,77.20
2019-05-14T18:14:28.895Z,77.40
2019-05-14T18:16:58.639Z,78.40
2019-05-14T18:19:28.980Z,76.90
2019-05-14T18:21:59.430Z,78.00
2019-05-14T18:24:28.997Z,78.30
2019-05-14T18:26:58.489Z,78.60
2019-05-14T18:29:29.543Z,79.00
2019-05-14T18:32:01.029Z,78.80
2019-05-14T18:34:30.333Z,79.70
2019-05-14T18:37:01.329Z,79.00
2019-05-14T18:39:30.875Z,78.90
2019-05-14T18:42:00.808Z,79.70
2019-05-14T18:44:30.674Z,80.40
2019-05-14T18:47:00.165Z,80.40
2019-05-14T18:49:29.535Z,81.00
2019-05-14T18:51:59.392Z,81.00
2019-05-14T18:54:29.363Z,81.60
2019-05-14T18:56:59.590Z,82.10
2019-05-14T18:59:30.857Z,82.90
2019-05-14T19:02:00.538Z,83.30
2019-05-14T19:04:30.097Z,83.30
2019-05-14T19:07:01.043Z,84.00
2019-05-14T19:09:30.443Z,84.30
2019-05-14T19:11:59.891Z,85.00
2019-05-14T19:14:29.430Z,85.20
2019-05-14T19:17:00.457Z,85.90
2019-05-14T19:19:29.980Z,86.10
2019-05-14T19:21:59.494Z,86.70
2019-05-14T19:24:28.954Z,87.30
2019-05-14T19:26:59.541Z,87.20
2019-05-14T19:29:29.204Z,87.60
2019-05-14T19:32:00.296Z,88.50
2019-05-14T19:34:29.792Z,88.60
2019-05-14T19:37:02.025Z,88.80
2019-05-14T19:39:33.130Z,89.90
2019-05-14T19:42:05.610Z,89.70
2019-05-14T19:44:35.186Z,90.30
2019-05-14T19:47:04.597Z,90.40
2019-05-14T19:49:33.962Z,90.50
2019-05-14T19:52:03.373Z,90.80
2019-05-14T19:54:32.893Z,91.20
2019-05-14T19:57:02.301Z,91.30
2019-05-14T19:59:31.843Z,91.60
2019-05-14T20:02:04.150Z,91.90
2019-05-14T20:04:33.616Z,92.10
2019-05-14T20:07:03.063Z,91.90
2019-05-14T20:09:32.493Z,91.90
2019-05-14T20:12:03.620Z,92.00
2019-05-14T20:14:33.146Z,92.10
2019-05-14T20:17:02.535Z,92.40
2019-05-14T20:19:32.228Z,92.50
2019-05-14T20:22:01.749Z,93.00
2019-05-14T20:24:31.275Z,93.10
2019-05-14T20:27:08.186Z,93.60
2019-05-14T20:29:33.340Z,93.80
2019-05-14T20:32:02.829Z,94.20
2019-05-14T20:34:32.205Z,94.70
2019-05-14T20:37:01.570Z,94.70
2019-05-14T20:39:33.368Z,95.20
2019-05-14T20:42:02.153Z,95.00
2019-05-14T20:44:31.512Z,95.30
2019-05-14T20:47:00.861Z,95.90
2019-05-14T20:49:30.290Z,96.30
2019-05-14T20:51:59.660Z,96.40
2019-05-14T20:54:29.121Z,96.80
2019-05-14T20:56:58.718Z,96.90
2019-05-14T20:59:28.331Z,97.30
2019-05-14T21:01:59.029Z,97.60
2019-05-14T21:04:32.361Z,97.90
2019-05-14T21:07:01.899Z,98.10
2019-05-14T21:09:31.398Z,98.50
2019-05-14T21:12:00.867Z,98.90
2019-05-14T21:14:30.305Z,99.30
2019-05-14T21:16:59.768Z,99.60
2019-05-14T21:19:29.241Z,99.90
2019-05-14T21:22:01.224Z,99.90
2019-05-14T21:24:32.686Z,99.90
2019-05-14T21:27:02.158Z,99.90
2019-05-14T21:29:31.680Z,99.90
2019-05-14T21:32:01.621Z,99.90
2019-05-14T21:34:31.251Z,99.90
2019-05-14T21:37:00.709Z,99.90
2019-05-14T21:39:30.181Z,99.90
2019-05-14T21:42:02.438Z,99.90
2019-05-14T21:44:31.991Z,99.90
2019-05-14T21:47:01.481Z,99.90
2019-05-14T21:49:32.027Z,99.90
2019-05-14T21:52:01.433Z,99.90
2019-05-14T21:54:31.083Z,99.90
2019-05-14T21:57:00.768Z,99.90
2019-05-14T21:59:30.319Z,99.90
2019-05-14T22:02:02.452Z,99.90
2019-05-14T22:04:31.911Z,99.90
2019-05-14T22:07:01.380Z,99.90
2019-05-14T22:09:30.872Z,99.90
2019-05-14T22:12:00.248Z,99.90
2019-05-14T22:14:29.708Z,99.90
2019-05-14T22:16:59.202Z,99.90
2019-05-14T22:19:28.736Z,99.90
2019-05-14T22:21:58.670Z,99.90
2019-05-14T22:24:28.766Z,99.90
2019-05-14T22:26:59.998Z,99.90
2019-05-14T22:29:29.465Z,99.90
2019-05-14T22:31:58.908Z,99.90
2019-05-14T22:34:28.376Z,99.90
2019-05-14T22:36:58.217Z,99.90
2019-05-14T22:39:29.128Z,99.90
2019-05-14T22:42:00.259Z,99.90
2019-05-14T22:44:29.940Z,99.90
2019-05-14T22:46:59.414Z,99.90
2019-05-14T22:49:31.992Z,99.90
2019-05-14T22:52:01.368Z,99.90
2019-05-14T22:54:30.828Z,99.90
2019-05-14T22:57:00.419Z,99.90
2019-05-14T22:59:29.877Z,99.90
2019-05-14T23:01:59.337Z,99.90
2019-05-14T23:04:29.052Z,99.90
2019-05-14T23:06:59.734Z,99.90
2019-05-14T23:09:29.212Z,99.90
2019-05-14T23:12:01.418Z,99.90
2019-05-14T23:14:30.891Z,99.90
2019-05-14T23:17:01.864Z,99.90
2019-05-14T23:19:31.342Z,99.90
2019-05-14T23:22:00.734Z,99.90
2019-05-14T23:24:30.185Z,99.90
2019-05-14T23:26:59.645Z,99.90
2019-05-14T23:29:29.113Z,99.90
2019-05-14T23:31:59.111Z,99.90
2019-05-14T23:34:28.603Z,99.90
2019-05-14T23:37:01.308Z,99.90
2019-05-14T23:39:31.115Z,99.90
2019-05-14T23:42:00.569Z,99.90
2019-05-14T23:44:30.017Z,99.90
2019-05-14T23:46:59.437Z,99.90
2019-05-14T23:49:28.897Z,99.90
2019-05-14T23:51:58.350Z,99.90
2019-05-14T23:54:29.206Z,99.90
2019-05-14T23:56:58.699Z,99.90
2019-05-14T23:59:29.339Z,99.90
